createdAt,value
2022-10-18T09:00:19.377Z,1.50
2022-10-18T09:03:36.858Z,1.40
2022-10-18T09:12:09.855Z,5.00
2022-10-18T09:26:23.295Z,3.70
2022-10-18T09:31:37.707Z,4.40
2022-10-18T09:34:38.806Z,4.07
2022-10-18T09:37:11.733Z,4.32
2022-10-18T09:39:49.387Z,4.47
2022-10-18T09:42:49.729Z,4.10
2022-10-18T09:45:22.985Z,3.95
2022-10-18T09:48:12.987Z,4.03
2022-10-18T10:00:13.060Z,3.08
2022-10-18T10:02:39.867Z,2.90
2022-10-18T10:10:42.483Z,5.00
2022-10-18T10:14:26.165Z,4.00
2022-10-18T10:16:52.996Z,3.58
2022-10-18T10:19:26.263Z,3.28
2022-10-18T10:22:03.938Z,3.42
2022-10-18T10:24:39.446Z,3.30
2022-10-18T10:27:09.235Z,3.17
2022-10-18T10:30:08.572Z,3.35
2022-10-18T10:32:46.308Z,2.83
2022-10-18T10:35:53.235Z,2.65
2022-10-18T10:38:28.454Z,2.88
2022-10-18T10:40:55.939Z,3.63
2022-10-18T10:43:36.930Z,3.08
2022-10-18T10:46:12.689Z,3.28
2022-10-18T10:48:41.888Z,3.65
2022-10-18T10:51:11.872Z,3.45
2022-10-18T10:53:43.923Z,3.40
2022-10-18T10:56:30.889Z,3.38
2022-10-18T10:59:16.621Z,3.40
2022-10-18T11:01:51.664Z,2.20
2022-10-18T11:04:34.425Z,2.92
2022-10-18T11:07:18.374Z,3.33
2022-10-18T11:09:53.286Z,3.13
2022-10-18T11:12:25.141Z,3.00
2022-10-18T11:14:57.374Z,3.10
2022-10-18T11:17:35.541Z,3.33
2022-10-18T11:20:12.794Z,3.05
2022-10-18T11:22:44.173Z,3.35
2022-10-18T11:25:15.711Z,2.90
2022-10-18T11:28:33.034Z,3.33
2022-10-18T11:31:25.000Z,3.50
2022-10-18T11:34:18.325Z,4.07
2022-10-18T11:37:27.249Z,4.15
2022-10-18T11:40:40.228Z,3.38
2022-10-18T11:43:19.063Z,3.67
2022-10-18T11:46:01.240Z,3.95
2022-10-18T11:49:05.565Z,3.90
2022-10-18T11:52:09.208Z,3.65
2022-10-18T11:54:58.329Z,3.72
2022-10-18T11:57:44.945Z,3.28
2022-10-18T12:00:42.267Z,1.95
2022-10-18T12:03:34.647Z,2.83
2022-10-18T12:06:25.973Z,2.55
2022-10-18T12:09:06.212Z,2.50
2022-10-18T12:11:55.495Z,2.67
2022-10-18T12:14:30.615Z,2.30
2022-10-18T12:17:42.936Z,2.25
2022-10-18T12:20:23.534Z,2.83
2022-10-18T12:23:33.635Z,2.95
2022-10-18T12:29:00.262Z,3.03
2022-10-18T12:32:12.369Z,2.35
2022-10-18T12:34:39.644Z,3.70
2022-10-18T12:37:13.466Z,3.55
2022-10-18T12:39:58.471Z,3.90
2022-10-18T12:42:31.089Z,6.63
2022-10-18T12:45:08.286Z,4.28
2022-10-18T12:47:42.750Z,4.05
2022-10-18T12:50:27.756Z,3.20
2022-10-18T12:53:05.478Z,2.65
2022-10-18T12:55:36.980Z,3.10
2022-10-18T12:58:23.165Z,2.67
2022-10-18T13:00:57.132Z,3.28
2022-10-18T13:03:27.177Z,2.55
2022-10-18T13:08:33.918Z,2.30
2022-10-18T13:11:10.319Z,2.20
2022-10-18T13:13:56.238Z,3.15
2022-10-18T13:16:23.400Z,3.45
2022-10-18T13:19:03.591Z,3.17
2022-10-18T13:21:46.315Z,2.35
2022-10-18T13:24:15.806Z,1.98
2022-10-18T13:26:42.560Z,2.10
2022-10-18T13:29:31.499Z,2.28
2022-10-18T13:34:44.807Z,2.15
2022-10-18T13:37:11.564Z,2.17
2022-10-18T13:39:39.933Z,2.53
2022-10-18T13:42:13.232Z,2.40
2022-10-18T13:44:40.478Z,2.42
2022-10-18T13:47:07.286Z,2.35
2022-10-18T13:49:40.375Z,2.63
2022-10-18T13:52:07.226Z,2.33
2022-10-18T13:54:52.597Z,2.72
2022-10-18T13:57:31.792Z,2.58
2022-10-18T14:00:08.903Z,2.50
2022-10-18T14:03:03.050Z,2.72
2022-10-18T14:05:42.456Z,2.67
2022-10-18T14:08:17.393Z,2.35
2022-10-18T14:11:03.606Z,2.55
2022-10-18T14:13:41.959Z,2.30
2022-10-18T14:16:27.111Z,2.55
2022-10-18T14:18:57.118Z,2.00
2022-10-18T14:21:31.098Z,2.17
2022-10-18T14:23:58.792Z,4.80
2022-10-18T14:26:29.258Z,2.50
2022-10-18T14:29:06.395Z,2.30
2022-10-18T14:31:33.452Z,2.28
2022-10-18T14:34:00.955Z,2.50
2022-10-18T14:36:30.692Z,2.60
2022-10-18T14:38:59.183Z,2.03
2022-10-18T14:41:27.767Z,2.05
2022-10-18T14:44:09.954Z,2.13
2022-10-18T14:46:43.351Z,2.25
2022-10-18T14:49:11.537Z,2.30
2022-10-18T14:51:40.947Z,3.50
2022-10-18T14:54:09.813Z,2.78
2022-10-18T14:56:39.735Z,2.40
2022-10-18T15:01:36.513Z,2.30
2022-10-18T15:06:32.604Z,2.65
2022-10-18T15:09:01.002Z,2.45
2022-10-18T15:11:28.293Z,2.60
2022-10-18T15:13:56.681Z,2.60
2022-10-18T15:16:25.168Z,2.65
2022-10-18T15:18:59.555Z,2.70
2022-10-18T15:21:26.556Z,2.95
2022-10-18T15:23:54.949Z,2.83
2022-10-18T15:26:29.574Z,2.67
2022-10-18T15:29:00.522Z,2.65
2022-10-18T15:31:33.051Z,2.97
2022-10-18T15:36:28.345Z,3.17
2022-10-18T15:39:14.837Z,3.45
2022-10-18T15:41:44.800Z,2.83
2022-10-18T15:46:45.076Z,2.88
2022-10-18T15:49:24.093Z,2.67
2022-10-18T15:51:55.867Z,2.10
2022-10-18T15:54:31.750Z,2.67
2022-10-18T15:57:20.929Z,3.85
2022-10-18T15:59:58.004Z,3.83
2022-10-18T16:02:26.553Z,2.85
2022-10-18T16:04:53.738Z,3.33
2022-10-18T16:07:23.653Z,3.08
2022-10-18T16:09:50.373Z,3.10
2022-10-18T16:12:17.247Z,2.88
2022-10-18T16:14:44.118Z,3.20
2022-10-18T16:17:16.827Z,3.88
2022-10-18T16:19:44.439Z,3.90
2022-10-18T16:24:44.816Z,3.58
2022-10-18T16:27:14.348Z,3.90
2022-10-18T16:29:41.671Z,3.30
2022-10-18T16:32:08.734Z,3.10
2022-10-18T16:34:35.617Z,3.33
2022-10-18T16:37:09.613Z,2.65
2022-10-18T16:39:36.387Z,3.40
2022-10-18T16:42:03.757Z,3.40
2022-10-18T16:44:30.443Z,2.72
2022-10-18T16:46:57.188Z,3.05
2022-10-18T16:49:25.481Z,3.60
2022-10-18T16:51:52.947Z,3.78
2022-10-18T16:54:22.221Z,3.10
2022-10-18T16:56:50.211Z,2.80
2022-10-18T16:59:25.256Z,3.25
2022-10-18T17:01:52.093Z,3.90
2022-10-18T17:04:18.862Z,3.28
2022-10-18T17:06:46.271Z,3.30
2022-10-18T17:09:14.416Z,3.30
2022-10-18T17:11:41.643Z,3.92
2022-10-18T17:14:08.664Z,3.97
2022-10-18T17:16:36.909Z,3.55
2022-10-18T17:19:05.008Z,3.67
2022-10-18T17:21:33.703Z,3.22
2022-10-18T17:24:06.384Z,3.08
2022-10-18T17:26:33.685Z,3.25
2022-10-18T17:29:04.124Z,3.10
2022-10-18T17:31:31.189Z,2.92
2022-10-18T17:33:58.810Z,3.47
2022-10-18T17:36:25.651Z,3.25
2022-10-18T17:38:53.115Z,4.85
2022-10-18T17:41:20.083Z,4.75
2022-10-18T17:43:48.288Z,4.40
2022-10-18T17:46:15.375Z,4.15
2022-10-18T17:48:42.649Z,4.38
2022-10-18T17:51:13.649Z,4.32
2022-10-18T17:53:40.481Z,5.32
2022-10-18T17:56:07.908Z,5.15
2022-10-18T17:58:35.243Z,4.20
2022-10-18T18:01:08.936Z,4.75
2022-10-18T18:03:35.727Z,4.75
2022-10-18T18:06:11.563Z,5.32
2022-10-18T18:08:38.375Z,7.82
2022-10-18T18:11:05.197Z,6.90
2022-10-18T18:13:35.152Z,7.13
2022-10-18T18:16:15.828Z,7.38
2022-10-18T18:18:42.851Z,6.22
2022-10-18T18:21:09.826Z,7.93
2022-10-18T18:23:36.750Z,7.68
2022-10-18T18:26:06.753Z,6.65
2022-10-18T18:31:06.901Z,5.68
2022-10-18T18:33:34.225Z,6.30
2022-10-18T18:36:00.972Z,6.97
2022-10-18T18:38:27.699Z,6.30
2022-10-18T18:41:03.888Z,6.97
2022-10-18T18:43:30.712Z,7.97
2022-10-18T18:45:57.505Z,6.50
2022-10-18T18:48:24.769Z,6.53
2022-10-18T18:50:52.340Z,9.95
2022-10-18T18:53:19.624Z,8.00
2022-10-18T18:55:46.553Z,6.65
2022-10-18T18:58:13.375Z,5.22
2022-10-18T19:00:44.508Z,5.28
2022-10-18T19:03:13.216Z,6.18
2022-10-18T19:05:40.258Z,5.50
2022-10-18T19:08:07.335Z,5.40
2022-10-18T19:10:34.354Z,4.68
2022-10-18T19:13:01.121Z,5.15
2022-10-18T19:15:31.132Z,5.80
2022-10-18T19:20:24.915Z,6.30
2022-10-18T19:22:52.270Z,5.38
2022-10-18T19:25:21.171Z,6.30
2022-10-18T19:27:50.331Z,5.57
2022-10-18T19:30:17.052Z,5.43
2022-10-18T19:32:44.030Z,6.00
2022-10-18T19:35:10.811Z,4.93
2022-10-18T19:37:37.673Z,5.90
2022-10-18T19:40:05.079Z,5.88
2022-10-18T19:42:32.299Z,6.00
2022-10-18T19:44:59.106Z,5.70
2022-10-18T19:47:26.132Z,5.47
2022-10-18T19:49:53.817Z,5.65
2022-10-18T19:52:20.486Z,6.05
2022-10-18T19:54:48.504Z,5.60
2022-10-18T19:57:15.213Z,5.75
2022-10-18T20:02:12.545Z,6.05
2022-10-18T20:04:39.219Z,5.43
2022-10-18T20:07:06.282Z,5.30
2022-10-18T20:09:33.882Z,4.88
2022-10-18T20:12:02.852Z,4.90
2022-10-18T20:14:29.711Z,5.70
2022-10-18T20:16:56.348Z,5.68
2022-10-18T20:19:23.149Z,5.18
2022-10-18T20:21:49.940Z,5.35
2022-10-18T20:24:16.894Z,4.78
2022-10-18T20:26:44.124Z,4.22
2022-10-18T20:29:14.536Z,4.45
2022-10-18T20:31:41.320Z,5.15
2022-10-18T20:34:11.693Z,4.78
2022-10-18T20:36:41.766Z,4.68
2022-10-18T20:39:09.039Z,5.20
2022-10-18T20:41:37.924Z,5.55
2022-10-18T20:44:10.722Z,5.85
2022-10-18T20:46:37.887Z,5.00
2022-10-18T20:49:06.724Z,5.00
2022-10-18T20:51:36.253Z,5.30
2022-10-18T20:56:33.677Z,6.10
2022-10-18T20:59:00.344Z,5.50
2022-10-18T21:01:31.783Z,5.10
2022-10-18T21:04:01.598Z,4.80
2022-10-18T21:06:30.944Z,5.30
2022-10-18T21:08:58.968Z,5.20
2022-10-18T21:11:27.046Z,5.00
2022-10-18T21:13:54.884Z,4.40
2022-10-18T21:16:21.804Z,5.25
2022-10-18T21:18:49.047Z,4.65
2022-10-18T21:21:19.799Z,4.90
2022-10-18T21:23:46.907Z,4.65
2022-10-18T21:26:32.952Z,5.53
2022-10-18T21:29:03.799Z,4.40
2022-10-18T21:31:31.781Z,4.90
2022-10-18T21:34:00.600Z,4.47
2022-10-18T21:36:30.844Z,5.32
2022-10-18T21:38:57.615Z,4.65
2022-10-18T21:41:24.690Z,4.97
2022-10-18T21:43:52.834Z,5.28
2022-10-18T21:46:20.274Z,4.90
2022-10-18T21:48:50.006Z,4.70
2022-10-18T21:51:17.786Z,4.15
2022-10-18T21:53:45.944Z,4.93
2022-10-18T21:56:15.042Z,5.63
2022-10-18T21:58:42.317Z,5.15
2022-10-18T22:01:09.078Z,4.43
2022-10-18T22:03:39.413Z,6.22
2022-10-18T22:06:08.976Z,5.97
2022-10-18T22:08:36.313Z,5.47
2022-10-18T22:11:06.803Z,5.60
2022-10-18T22:13:33.735Z,4.88
2022-10-18T22:16:02.643Z,4.60
2022-10-18T22:18:29.712Z,5.47
2022-10-18T22:20:57.411Z,4.28
2022-10-18T22:23:30.475Z,5.03
2022-10-18T22:26:01.477Z,4.15
2022-10-18T22:28:28.276Z,3.83
2022-10-18T22:30:54.889Z,3.83
2022-10-18T22:33:21.561Z,4.00
2022-10-18T22:35:49.187Z,4.18
2022-10-18T22:38:15.907Z,4.10
2022-10-18T22:40:42.622Z,4.07
2022-10-18T22:43:09.333Z,4.00
2022-10-18T22:45:36.327Z,4.28
2022-10-18T22:48:08.022Z,4.53
2022-10-18T22:50:37.213Z,3.83
2022-10-18T22:53:07.123Z,4.10
2022-10-18T22:55:34.556Z,4.53
2022-10-18T22:58:01.230Z,4.50
2022-10-18T23:02:58.313Z,4.07
2022-10-18T23:05:25.038Z,3.92
2022-10-18T23:07:51.877Z,4.78
2022-10-18T23:10:21.319Z,3.67
2022-10-18T23:12:48.100Z,4.22
2022-10-18T23:15:14.887Z,3.80
2022-10-18T23:17:41.644Z,4.07
2022-10-18T23:20:09.672Z,4.63
2022-10-18T23:22:36.608Z,4.70
2022-10-18T23:25:04.294Z,4.40
2022-10-18T23:27:31.185Z,4.18
2022-10-18T23:29:58.050Z,4.50
2022-10-18T23:32:25.217Z,4.22
2022-10-18T23:34:52.276Z,4.13
2022-10-18T23:37:19.171Z,4.35
2022-10-18T23:39:45.836Z,4.72
2022-10-18T23:42:12.504Z,4.22
2022-10-18T23:44:39.811Z,4.30
2022-10-18T23:47:06.457Z,3.85
2022-10-18T23:49:33.064Z,4.90
2022-10-18T23:52:00.108Z,3.90
2022-10-18T23:54:27.168Z,4.75
2022-10-18T23:56:53.811Z,4.70
2022-10-18T23:59:20.856Z,4.60
